Главная страница
METAR-TAF:

METAR-TAF

Аэропорты :

Савонлинна, Финляндия

широта: 61-57N, долгота: 028-57E, высота над уровнем моря: 95 м

Текущие метеонаблюдения

Эта сводка был подготовлена 29 минут назад, в 10:50 UTC
Ветер 8 Узел от северо-западный, изменяющийся между западный и северный
Температура 14°C
Влажность 41%
Давление 1010 hPa
Видимость 10 км и более
Нет облачности ниже 1500 м, и нет кучево-дождевой облачности

METAR: EFSA 261050Z AUTO 31008KT 270V360 CAVOK 14/01 Q1010

Время: 14:19 (11:19 UTC)

Прогноз

Эта сводка был подготовлена 2 часа и 56 минут назад, в 08:23 UTC
Прогноз действительный с 26-го 09 UTC до 26-го 18 UTC
Ветер 10 Узел от западно-северо-западный
Видимость 10 км и более
Нет облачности ниже 1500 м, и нет кучево-дождевой облачности
временами
С 26-го 09 UTC до 26-го 15 UTC
Ветер 15 Узел от северно-северо-западный с порывами до 27 Узел

TAF: EFSA 260823Z 2609/2618 29010KT CAVOK TEMPO 2609/2615 33015G27KT

Метеонаблюдения и прогнозы для более 4000 аэропортов (сводки METAR и TAF).

Имеющиеся станции представлены на карте желтыми и красными точками.

Чтобы увидеть название станции, наведите на нее мышь.

Затем щелкните, чтобы увидеть метеонаблюдения и метеопрогнозы.

Управление картой: чтобы увеличить масштаб, щелкните зеленые кнопки с черным крестиком; чтобы уменьшить масштаб, щелкните зеленую кнопку с тире; для просмотра соседних карт щелкайте зеленые стрелки.


METAR-TAF: